Time;durP1;ratioP1;P1;durP2;ratioP2;P2;SDS_P1;SDS_P2;PMS_P1;PMS_P2;Temp;Humidity;BMP_temperature;BMP_pressure;BME280_temperature;BME280_humidity;BME280_pressure;Samples;Min_cycle;Max_cycle;Signal;HPM_P1;HPM_P2
2022/08/11 00:01:45;;;;;;;7.28;3.05;;;;;;;;;;4970728;28;20949;-72
2022/08/11 00:04:13;;;;;;;5.03;3.00;;;;;;;;;;4970640;28;20042;-73
2022/08/11 00:06:40;;;;;;;6.95;2.85;;;;;;;;;;4969502;28;20086;-72
2022/08/11 00:09:15;;;;;;;4.28;2.80;;;;;;;;;;4973171;28;20489;-73
2022/08/11 00:11:45;;;;;;;4.18;2.67;;;;;;;;;;4971066;23;20488;-74
2022/08/11 00:14:32;;;;;;;4.72;2.80;;;;;;;;;;4949917;28;20043;-74
2022/08/11 00:17:02;;;;;;;7.60;3.53;;;;;;;;;;4949136;28;20130;-71
2022/08/11 00:19:34;;;;;;;5.60;3.00;;;;;;;;;;4957964;28;20050;-74
2022/08/11 00:22:02;;;;;;;5.93;2.78;;;;;;;;;;4967565;28;20078;-73
2022/08/11 00:24:33;;;;;;;3.67;2.78;;;;;;;;;;4968153;28;20053;-72
2022/08/11 00:26:59;;;;;;;4.22;2.60;;;;;;;;;;4967085;28;20164;-74
2022/08/11 00:29:26;;;;;;;6.25;2.67;;;;;;;;;;4967266;28;20530;-72
2022/08/11 00:31:54;;;;;;;7.13;2.85;;;;;;;;;;4967944;28;20047;-72
2022/08/11 00:34:25;;;;;;;5.50;2.50;;;;;;;;;;4968217;28;20054;-72
2022/08/11 00:36:57;;;;;;;5.43;2.85;;;;;;;;;;4959036;28;20055;-73
2022/08/11 00:39:25;;;;;;;5.95;2.80;;;;;;;;;;4949162;28;20047;-74
2022/08/11 00:42:14;;;;;;;6.38;2.80;;;;;;;;;;4948132;28;20059;-73
2022/08/11 00:45:03;;;;;;;5.82;2.58;;;;;;;;;;4948332;28;20054;-72
2022/08/11 00:47:32;;;;;;;5.35;3.00;;;;;;;;;;4948447;28;20643;-72
2022/08/11 00:50:06;;;;;;;3.50;2.42;;;;;;;;;;4958467;28;20133;-72
2022/08/11 00:53:09;;;;;;;5.72;2.65;;;;;;;;;;4967073;28;20086;-72
2022/08/11 00:55:54;;;;;;;5.13;2.40;;;;;;;;;;4967152;28;20051;-71
2022/08/11 00:58:28;;;;;;;3.50;2.65;;;;;;;;;;4955033;28;20075;-72
2022/08/11 01:01:00;;;;;;;;;;;;;;;;;;4965418;28;20503;-69
2022/08/11 01:03:56;;;;;;;2.97;2.67;;;;;;;;;;4967622;28;19922;-72
2022/08/11 01:07:04;;;;;;;6.85;3.10;;;;;;;;;;4967065;28;20051;-71
2022/08/11 01:09:38;;;;;;;8.30;2.90;;;;;;;;;;4964260;28;20047;-75
2022/08/11 01:12:38;;;;;;;5.78;3.03;;;;;;;;;;4964898;28;20117;-72
2022/08/11 01:15:25;;;;;;;5.90;3.50;;;;;;;;;;4964459;28;20061;-74
2022/08/11 01:18:16;;;;;;;5.82;3.45;;;;;;;;;;4965143;28;20051;-74
2022/08/11 01:20:44;;;;;;;6.32;3.72;;;;;;;;;;4964891;28;20059;-75
2022/08/11 01:23:25;;;;;;;11.02;4.00;;;;;;;;;;4964783;28;20051;-74
2022/08/11 01:26:08;;;;;;;8.48;3.50;;;;;;;;;;4964846;28;20047;-73
2022/08/11 01:28:58;;;;;;;6.82;3.55;;;;;;;;;;4964643;28;20459;-72
2022/08/11 01:31:49;;;;;;;8.80;3.70;;;;;;;;;;4964848;28;20053;-73
2022/08/11 01:34:26;;;;;;;8.20;3.65;;;;;;;;;;4945387;28;20055;-72
2022/08/11 01:37:46;;;;;;;7.90;4.03;;;;;;;;;;4945568;28;20105;-75
2022/08/11 01:40:37;;;;;;;8.30;4.05;;;;;;;;;;4900077;29;20565;-73
2022/08/11 01:46:32;;;;;;;4.53;3.13;;;;;;;;;;4892746;29;20077;-73
2022/08/11 01:49:27;;;;;;;6.63;3.60;;;;;;;;;;4928145;29;20065;-72
2022/08/11 01:52:01;;;;;;;7.85;3.03;;;;;;;;;;4921716;29;20613;-72
2022/08/11 01:54:45;;;;;;;5.10;3.00;;;;;;;;;;4907604;29;20100;-71
2022/08/11 01:57:30;;;;;;;5.25;3.20;;;;;;;;;;4909909;29;20793;-71
2022/08/11 02:00:08;;;;;;;8.48;3.47;;;;;;;;;;4907290;29;20044;-70
2022/08/11 02:02:47;;;;;;;7.13;3.28;;;;;;;;;;4895819;29;20048;-70
2022/08/11 02:06:00;;;;;;;4.93;2.72;;;;;;;;;;4907324;29;20386;-73
2022/08/11 02:08:29;;;;;;;5.00;3.00;;;;;;;;;;4907453;29;20055;-74
2022/08/11 02:13:59;;;;;;;7.25;3.22;;;;;;;;;;4926639;29;20051;-73
2022/08/11 02:16:52;;;;;;;10.95;3.33;;;;;;;;;;4947905;28;20062;-73
2022/08/11 02:25:22;;;;;;;8.35;2.83;;;;;;;;;;4932587;29;20047;-75
2022/08/11 02:28:11;;;;;;;5.82;3.08;;;;;;;;;;4940327;28;20134;-71
2022/08/11 02:34:15;;;;;;;13.45;3.63;;;;;;;;;;4948841;29;20062;-71
2022/08/11 02:36:53;;;;;;;9.13;3.33;;;;;;;;;;4949086;28;20087;-72
2022/08/11 02:39:23;;;;;;;5.05;3.10;;;;;;;;;;4948989;29;20062;-71
2022/08/11 02:44:48;;;;;;;6.72;3.20;;;;;;;;;;4948275;29;20624;-73
2022/08/11 02:47:39;;;;;;;7.05;2.97;;;;;;;;;;4949899;28;20101;-73
2022/08/11 02:50:25;;;;;;;5.57;2.95;;;;;;;;;;4949150;28;20601;-73
2022/08/11 02:53:10;;;;;;;5.43;2.78;;;;;;;;;;4949507;29;20054;-72
2022/08/11 02:55:53;;;;;;;3.60;2.25;;;;;;;;;;4950252;29;20054;-71
2022/08/11 02:58:38;;;;;;;10.57;3.00;;;;;;;;;;4948697;28;20535;-72
2022/08/11 03:01:27;;;;;;;4.10;2.63;;;;;;;;;;4948215;29;20070;-72
2022/08/11 03:04:04;;;;;;;4.93;2.53;;;;;;;;;;4948111;29;20741;-73
2022/08/11 03:06:44;;;;;;;5.93;2.67;;;;;;;;;;4931163;29;20043;-73
2022/08/11 03:09:16;;;;;;;5.80;2.40;;;;;;;;;;4952954;28;20055;-73
2022/08/11 03:17:42;;;;;;;3.80;2.55;;;;;;;;;;4950822;28;20058;-73
2022/08/11 03:20:18;;;;;;;3.83;2.42;;;;;;;;;;4938303;28;20051;-71
2022/08/11 03:23:05;;;;;;;4.20;2.40;;;;;;;;;;4941607;29;20560;-73
2022/08/11 03:25:35;;;;;;;4.70;2.50;;;;;;;;;;4942740;29;20074;-73
2022/08/11 03:28:19;;;;;;;4.00;2.38;;;;;;;;;;4944509;28;20051;-73
2022/08/11 03:30:57;;;;;;;7.63;2.63;;;;;;;;;;4943423;28;20059;-72
2022/08/11 03:37:03;;;;;;;4.80;2.50;;;;;;;;;;4941707;29;20066;-73
2022/08/11 03:39:31;;;;;;;5.60;2.40;;;;;;;;;;4944458;29;20508;-73
2022/08/11 03:42:07;;;;;;;7.53;2.78;;;;;;;;;;4944394;29;20069;-72
2022/08/11 03:44:49;;;;;;;4.68;2.45;;;;;;;;;;4946286;28;20051;-74
2022/08/11 03:47:49;;;;;;;6.00;3.00;;;;;;;;;;4943430;28;20067;-73
2022/08/11 03:50:23;;;;;;;4.07;2.50;;;;;;;;;;4942245;29;20111;-76
2022/08/11 03:53:11;;;;;;;3.95;2.40;;;;;;;;;;4942438;28;20098;-73
2022/08/11 03:56:11;;;;;;;5.20;2.38;;;;;;;;;;4942338;28;20432;-73
2022/08/11 03:59:02;;;;;;;5.32;2.33;;;;;;;;;;4941700;28;20464;-75
2022/08/11 04:01:52;;;;;;;3.83;2.50;;;;;;;;;;4944315;28;20099;-72
2022/08/11 04:04:36;;;;;;;7.32;2.92;;;;;;;;;;4942100;29;20067;-72
2022/08/11 04:07:11;;;;;;;;;;;;;;;;;;4941833;28;20051;-73
2022/08/11 04:10:12;;;;;;;3.15;2.50;;;;;;;;;;4941523;28;20040;-73
2022/08/11 04:13:31;;;;;;;6.10;2.60;;;;;;;;;;4941388;29;20052;-72
2022/08/11 04:16:33;;;;;;;3.33;2.80;;;;;;;;;;4955643;28;20059;-72
2022/08/11 04:19:35;;;;;;;4.80;2.50;;;;;;;;;;4959002;28;20979;-72
2022/08/11 04:22:50;;;;;;;3.90;2.47;;;;;;;;;;4959580;28;20047;-71
2022/08/11 04:25:57;;;;;;;4.60;2.80;;;;;;;;;;4942758;28;20055;-70
2022/08/11 04:28:48;;;;;;;4.60;2.75;;;;;;;;;;4951021;28;20101;-72
2022/08/11 04:31:32;;;;;;;6.65;2.50;;;;;;;;;;4958901;28;20050;-73
2022/08/11 04:34:30;;;;;;;6.65;2.55;;;;;;;;;;4958555;28;20063;-73
2022/08/11 04:39:56;;;;;;;5.38;2.47;;;;;;;;;;4954161;28;20050;-74
2022/08/11 04:45:36;;;;;;;6.00;3.00;;;;;;;;;;4957046;28;20137;-74
2022/08/11 05:01:50;;;;;;;5.40;2.80;;;;;;;;;;4936530;28;20058;-72
2022/08/11 05:08:01;;;;;;;5.72;2.85;;;;;;;;;;4939939;28;20054;-72
2022/08/11 05:10:39;;;;;;;4.95;2.75;;;;;;;;;;4939249;29;20078;-72
2022/08/11 05:36:43;;;;;;;5.90;2.92;;;;;;;;;;4939247;29;20130;-73
2022/08/11 05:58:45;;;;;;;9.27;3.70;;;;;;;;;;4942543;28;20054;-77
2022/08/11 06:01:20;;;;;;;8.52;3.40;;;;;;;;;;4939786;29;20138;-76
2022/08/11 06:06:39;;;;;;;6.45;3.38;;;;;;;;;;4939292;29;20110;-76
2022/08/11 06:09:06;;;;;;;13.23;3.75;;;;;;;;;;4941542;28;20456;-76
2022/08/11 06:11:41;;;;;;;10.15;3.65;;;;;;;;;;4941702;28;20595;-76
2022/08/11 06:14:09;;;;;;;7.13;3.50;;;;;;;;;;4945602;28;20049;-77
2022/08/11 06:16:36;;;;;;;8.85;3.72;;;;;;;;;;4942866;28;20508;-78
2022/08/11 06:19:04;;;;;;;13.90;4.13;;;;;;;;;;4940695;28;20055;-76
2022/08/11 06:21:34;;;;;;;9.45;3.92;;;;;;;;;;4940399;28;20063;-74
2022/08/11 06:24:04;;;;;;;10.25;3.97;;;;;;;;;;4941656;29;20814;-74
2022/08/11 06:26:30;;;;;;;14.50;4.40;;;;;;;;;;4939575;28;20070;-73
2022/08/11 06:28:58;;;;;;;10.65;4.00;;;;;;;;;;4940449;28;20055;-73
2022/08/11 06:31:24;;;;;;;11.88;3.92;;;;;;;;;;4942967;28;20508;-73
2022/08/11 06:33:56;;;;;;;14.13;3.80;;;;;;;;;;4939189;28;20679;-73
2022/08/11 06:36:33;;;;;;;14.88;4.15;;;;;;;;;;4938055;29;20063;-74
2022/08/11 06:39:27;;;;;;;13.20;4.50;;;;;;;;;;4939777;28;20752;-73
2022/08/11 06:42:11;;;;;;;9.20;3.63;;;;;;;;;;4939586;28;20127;-76
2022/08/11 06:44:57;;;;;;;8.23;3.60;;;;;;;;;;4939852;29;20052;-74
2022/08/11 06:47:24;;;;;;;9.73;3.47;;;;;;;;;;4939727;29;20375;-74
2022/08/11 06:52:37;;;;;;;11.73;3.20;;;;;;;;;;4939393;29;20133;-74
2022/08/11 06:55:11;;;;;;;13.60;3.42;;;;;;;;;;4938002;29;20118;-73
2022/08/11 07:00:29;;;;;;;7.38;2.83;;;;;;;;;;4931017;29;20609;-75
2022/08/11 07:03:18;;;;;;;11.85;3.00;;;;;;;;;;4939104;28;20595;-74
2022/08/11 07:05:44;;;;;;;11.93;3.03;;;;;;;;;;4936973;28;20489;-73
2022/08/11 07:17:26;;;;;;;11.88;2.50;;;;;;;;;;4942947;29;20055;-75
2022/08/11 07:31:16;;;;;;;13.35;2.90;;;;;;;;;;4942778;28;20608;-75
2022/08/11 07:34:02;;;;;;;12.30;2.58;;;;;;;;;;4943582;28;20055;-75
2022/08/11 07:36:30;;;;;;;10.32;3.00;;;;;;;;;;4940528;29;20081;-77
2022/08/11 07:38:57;;;;;;;13.75;3.13;;;;;;;;;;4941561;28;20056;-75
2022/08/11 07:41:24;;;;;;;8.32;2.72;;;;;;;;;;4956485;28;20051;-74
2022/08/11 07:44:07;;;;;;;6.50;2.92;;;;;;;;;;4942675;28;20477;-77
2022/08/11 07:52:27;;;;;;;9.48;2.92;;;;;;;;;;4948061;28;20564;-78
2022/08/11 07:54:59;;;;;;;10.43;2.88;;;;;;;;;;4944413;29;20047;-79
2022/08/11 08:19:32;;;;;;;10.20;2.60;;;;;;;;;;4950089;28;20509;-79
2022/08/11 08:21:58;;;;;;;6.80;2.42;;;;;;;;;;4949047;28;20059;-82
2022/08/11 08:24:24;;;;;;;5.15;2.60;;;;;;;;;;4955386;29;20055;-76
2022/08/11 08:27:00;;;;;;;11.38;2.65;;;;;;;;;;4939776;28;20110;-73
2022/08/11 08:32:18;;;;;;;7.53;2.25;;;;;;;;;;4941637;28;20560;-73
2022/08/11 08:34:46;;;;;;;6.38;2.40;;;;;;;;;;4942237;28;20063;-72
2022/08/11 08:37:13;;;;;;;9.80;2.70;;;;;;;;;;4944466;28;20517;-72
2022/08/11 08:39:39;;;;;;;8.57;2.20;;;;;;;;;;4943902;28;20055;-75
2022/08/11 08:42:16;;;;;;;5.43;2.10;;;;;;;;;;4940511;28;20070;-74
2022/08/11 08:44:46;;;;;;;6.97;2.25;;;;;;;;;;4941668;28;20039;-75
2022/08/11 08:47:16;;;;;;;6.43;2.20;;;;;;;;;;4943618;28;20531;-73
2022/08/11 08:49:49;;;;;;;6.15;2.20;;;;;;;;;;4941942;28;20043;-74
2022/08/11 08:52:21;;;;;;;3.95;2.10;;;;;;;;;;4939906;29;20555;-76
2022/08/11 08:54:52;;;;;;;3.65;2.08;;;;;;;;;;4940069;28;20666;-75
2022/08/11 08:57:21;;;;;;;6.68;2.83;;;;;;;;;;4941881;28;20770;-73
2022/08/11 08:59:48;;;;;;;2.75;1.77;;;;;;;;;;4944757;28;20115;-75
2022/08/11 09:02:16;;;;;;;3.30;2.00;;;;;;;;;;4939360;28;20051;-76
2022/08/11 09:04:45;;;;;;;2.47;1.98;;;;;;;;;;4944194;28;20051;-79
2022/08/11 09:07:25;;;;;;;4.70;2.28;;;;;;;;;;4939854;28;20047;-74
2022/08/11 09:09:55;;;;;;;6.53;2.30;;;;;;;;;;4934922;29;20351;-73
2022/08/11 09:12:26;;;;;;;7.05;2.30;;;;;;;;;;4938110;28;20137;-72
2022/08/11 09:14:59;;;;;;;4.07;1.88;;;;;;;;;;4938080;28;20051;-72
2022/08/11 09:17:27;;;;;;;4.03;1.98;;;;;;;;;;4938124;29;20213;-75
2022/08/11 09:20:04;;;;;;;5.25;2.05;;;;;;;;;;4941329;28;20046;-74
2022/08/11 09:28:06;;;;;;;8.30;2.47;;;;;;;;;;4940772;29;20248;-73
2022/08/11 09:30:32;;;;;;;9.38;2.50;;;;;;;;;;4939427;28;20062;-73
2022/08/11 09:33:01;;;;;;;7.65;2.10;;;;;;;;;;4941109;28;20051;-70
2022/08/11 09:35:29;;;;;;;8.38;2.58;;;;;;;;;;4943181;29;20102;-75
2022/08/11 09:40:44;;;;;;;7.55;2.80;;;;;;;;;;4942356;28;20055;-77
2022/08/11 09:45:58;;;;;;;8.45;2.90;;;;;;;;;;4942497;29;20047;-76
2022/08/11 09:48:27;;;;;;;15.32;3.40;;;;;;;;;;4945850;28;20047;-72
2022/08/11 09:50:59;;;;;;;5.40;2.83;;;;;;;;;;4945554;28;20051;-73
2022/08/11 09:53:29;;;;;;;11.45;3.40;;;;;;;;;;4944605;29;20058;-73
2022/08/11 09:58:12;;;;;;;12.02;3.72;;;;;;;;;;4941447;29;20043;-72
2022/08/11 09:58:47;;;;;;;8.45;2.78;;;;;;;;;;4941771;28;20134;-74
2022/08/11 10:01:25;;;;;;;11.85;2.80;;;;;;;;;;4940003;28;20500;-74
2022/08/11 10:04:24;;;;;;;9.32;2.63;;;;;;;;;;4937637;29;20074;-75
2022/08/11 10:07:02;;;;;;;6.47;2.45;;;;;;;;;;4941087;28;20083;-75
2022/08/11 10:09:50;;;;;;;7.35;2.13;;;;;;;;;;4938415;29;20051;-75
2022/08/11 10:12:31;;;;;;;7.50;2.42;;;;;;;;;;4939539;28;20125;-71
2022/08/11 10:20:49;;;;;;;5.15;2.28;;;;;;;;;;4936282;28;20517;-76
2022/08/11 10:28:45;;;;;;;5.15;2.55;;;;;;;;;;4940805;29;20055;-73
2022/08/11 10:34:00;;;;;;;7.38;2.30;;;;;;;;;;4939326;29;20039;-70
2022/08/11 10:36:47;;;;;;;5.65;2.33;;;;;;;;;;4937702;29;20163;-70
2022/08/11 10:39:17;;;;;;;5.15;2.08;;;;;;;;;;4939914;28;20062;-70
2022/08/11 10:44:37;;;;;;;5.03;2.13;;;;;;;;;;4941663;29;20059;-77
2022/08/11 10:51:11;;;;;;;7.13;2.00;;;;;;;;;;4955744;28;20019;-79
2022/08/11 11:00:57;;;;;;;4.35;2.35;;;;;;;;;;4956347;28;20054;-79
2022/08/11 11:03:30;;;;;;;3.95;2.30;;;;;;;;;;4954892;29;20081;-79
2022/08/11 11:06:24;;;;;;;3.25;2.10;;;;;;;;;;4943653;28;20058;-73
2022/08/11 11:09:05;;;;;;;6.07;2.80;;;;;;;;;;4944708;29;20187;-72
2022/08/11 11:19:59;;;;;;;6.20;2.33;;;;;;;;;;4950235;29;20352;-71
2022/08/11 11:22:37;;;;;;;5.22;2.72;;;;;;;;;;4956640;28;20495;-74
2022/08/11 11:25:15;;;;;;;6.05;3.10;;;;;;;;;;4977857;28;20046;-81
2022/08/11 11:27:51;;;;;;;5.18;2.40;;;;;;;;;;4973000;28;20150;-72
2022/08/11 11:30:17;;;;;;;9.70;2.70;;;;;;;;;;4966838;28;20488;-77
2022/08/11 11:32:54;;;;;;;6.57;2.35;;;;;;;;;;4957402;29;20102;-74
2022/08/11 11:35:29;;;;;;;3.75;2.55;;;;;;;;;;4953372;28;20142;-76
2022/08/11 11:37:57;;;;;;;7.22;2.60;;;;;;;;;;4951514;28;20053;-77
2022/08/11 11:40:24;;;;;;;8.80;2.40;;;;;;;;;;4953300;28;20074;-70
2022/08/11 11:42:52;;;;;;;7.05;2.72;;;;;;;;;;4952901;28;20047;-74
2022/08/11 11:45:23;;;;;;;7.45;2.67;;;;;;;;;;4953041;28;20051;-72
2022/08/11 11:47:53;;;;;;;9.85;2.50;;;;;;;;;;4950979;28;20059;-72
2022/08/11 11:50:41;;;;;;;6.13;2.90;;;;;;;;;;4951673;28;20055;-72
2022/08/11 11:53:10;;;;;;;5.57;2.22;;;;;;;;;;4957980;28;20040;-78
2022/08/11 11:55:36;;;;;;;5.57;2.25;;;;;;;;;;4958389;28;20127;-73
2022/08/11 12:03:36;;;;;;;4.75;2.35;;;;;;;;;;4960890;29;20598;-77
2022/08/11 12:06:03;;;;;;;4.85;2.72;;;;;;;;;;4954398;28;20548;-75
2022/08/11 12:08:30;;;;;;;6.55;2.15;;;;;;;;;;4954447;28;20457;-77
2022/08/11 12:14:01;;;;;;;4.70;2.30;;;;;;;;;;4981419;28;20050;-75
2022/08/11 12:16:28;;;;;;;5.63;2.17;;;;;;;;;;4989783;28;20046;-81
2022/08/11 12:18:57;;;;;;;6.85;2.38;;;;;;;;;;5000602;28;20070;-77
2022/08/11 12:21:25;;;;;;;4.05;2.15;;;;;;;;;;4994307;28;20050;-78
2022/08/11 12:29:19;;;;;;;5.45;2.30;;;;;;;;;;4996285;28;20117;-80
2022/08/11 12:31:47;;;;;;;6.22;2.33;;;;;;;;;;4994409;28;20213;-77
2022/08/11 12:34:15;;;;;;;6.57;2.58;;;;;;;;;;4984661;28;20128;-77
2022/08/11 12:37:04;;;;;;;2.95;1.95;;;;;;;;;;4983370;28;20050;-77
2022/08/11 12:45:27;;;;;;;4.32;2.38;;;;;;;;;;4993202;28;20038;-78
2022/08/11 12:53:45;;;;;;;8.25;2.40;;;;;;;;;;4944984;29;20064;-76
2022/08/11 13:07:15;;;;;;;6.03;2.00;;;;;;;;;;4951039;28;20062;-77
2022/08/11 13:09:43;;;;;;;4.97;1.75;;;;;;;;;;4946778;29;20515;-76
2022/08/11 13:14:55;;;;;;;3.40;1.70;;;;;;;;;;4937130;29;20056;-73
2022/08/11 13:17:23;;;;;;;2.50;1.67;;;;;;;;;;4949859;28;20043;-75
2022/08/11 13:19:50;;;;;;;4.03;1.85;;;;;;;;;;4950632;28;20039;-75
2022/08/11 13:22:18;;;;;;;12.30;2.10;;;;;;;;;;4952053;28;20055;-76
2022/08/11 13:24:47;;;;;;;3.60;1.50;;;;;;;;;;4949397;28;20055;-66
2022/08/11 13:27:17;;;;;;;5.60;1.92;;;;;;;;;;4949848;28;20424;-71
2022/08/11 13:29:45;;;;;;;3.53;1.80;;;;;;;;;;4948635;28;20053;-70
2022/08/11 13:32:14;;;;;;;2.95;1.83;;;;;;;;;;4943953;28;20052;-67
2022/08/11 13:34:41;;;;;;;5.75;2.00;;;;;;;;;;4941683;29;20047;-72
2022/08/11 13:37:13;;;;;;;4.07;1.98;;;;;;;;;;4946658;29;20097;-71
2022/08/11 13:39:46;;;;;;;2.85;1.60;;;;;;;;;;4965020;28;20104;-77
2022/08/11 13:42:18;;;;;;;2.63;1.50;;;;;;;;;;4969786;28;20047;-76
2022/08/11 13:44:45;;;;;;;2.20;1.60;;;;;;;;;;4967461;28;20038;-74
2022/08/11 13:47:12;;;;;;;6.80;1.90;;;;;;;;;;4969581;28;20054;-75
2022/08/11 13:49:40;;;;;;;5.60;1.80;;;;;;;;;;4969151;28;20117;-74
2022/08/11 13:52:12;;;;;;;4.18;1.85;;;;;;;;;;4969447;28;20104;-74
2022/08/11 13:54:40;;;;;;;3.13;1.80;;;;;;;;;;4969528;28;20053;-72
2022/08/11 13:57:07;;;;;;;3.15;1.75;;;;;;;;;;4965460;28;20460;-75
2022/08/11 13:59:34;;;;;;;3.28;1.80;;;;;;;;;;4965245;28;20043;-74
2022/08/11 14:02:03;;;;;;;8.18;1.73;;;;;;;;;;4966610;28;20047;-77
2022/08/11 14:04:41;;;;;;;4.80;1.50;;;;;;;;;;4968673;28;20057;-74
2022/08/11 14:07:09;;;;;;;4.18;1.50;;;;;;;;;;4964682;28;20055;-73
2022/08/11 14:09:39;;;;;;;3.35;1.77;;;;;;;;;;4963174;28;20117;-75
2022/08/11 14:15:04;;;;;;;3.90;1.90;;;;;;;;;;4967533;28;20054;-73
2022/08/11 14:17:32;;;;;;;3.53;1.23;;;;;;;;;;4967259;28;20105;-73
2022/08/11 14:20:03;;;;;;;3.78;1.30;;;;;;;;;;4967275;28;20122;-76
2022/08/11 14:22:31;;;;;;;3.95;1.58;;;;;;;;;;4966859;28;20058;-74
2022/08/11 14:24:57;;;;;;;2.60;1.30;;;;;;;;;;4968191;28;20043;-76
2022/08/11 14:27:28;;;;;;;2.17;1.38;;;;;;;;;;4967750;28;20166;-75
2022/08/11 14:29:55;;;;;;;3.78;1.65;;;;;;;;;;4958141;28;20057;-74
2022/08/11 14:32:21;;;;;;;7.15;1.60;;;;;;;;;;4950479;28;20050;-74
2022/08/11 14:34:48;;;;;;;5.40;1.48;;;;;;;;;;4951958;28;20505;-73
2022/08/11 14:37:19;;;;;;;2.95;1.50;;;;;;;;;;4953122;28;20054;-72
2022/08/11 14:39:53;;;;;;;6.80;1.70;;;;;;;;;;4951936;28;20043;-72
2022/08/11 14:47:53;;;;;;;2.17;1.40;;;;;;;;;;4967310;28;20142;-74
2022/08/11 14:50:27;;;;;;;2.38;1.38;;;;;;;;;;4971477;28;20067;-73
2022/08/11 14:53:03;;;;;;;4.03;1.42;;;;;;;;;;4970700;28;20146;-74
2022/08/11 14:58:24;;;;;;;4.25;1.55;;;;;;;;;;4970284;28;20051;-74
2022/08/11 15:00:53;;;;;;;6.20;1.40;;;;;;;;;;4967291;28;20059;-77
2022/08/11 15:03:21;;;;;;;3.30;1.55;;;;;;;;;;4961054;28;20489;-72
2022/08/11 15:05:56;;;;;;;2.95;1.50;;;;;;;;;;4948090;28;20083;-75
2022/08/11 15:08:53;;;;;;;4.55;1.40;;;;;;;;;;4948573;28;20058;-73
2022/08/11 15:12:07;;;;;;;3.72;1.60;;;;;;;;;;4946992;28;20500;-72
2022/08/11 15:13:59;;;;;;;8.90;1.65;;;;;;;;;;4947371;28;20047;-72
2022/08/11 15:19:12;;;;;;;4.85;1.50;;;;;;;;;;4947658;29;20102;-74
2022/08/11 15:24:23;;;;;;;4.55;1.58;;;;;;;;;;4947635;29;20568;-75
2022/08/11 15:37:59;;;;;;;3.30;1.48;;;;;;;;;;4951989;28;20051;-72
2022/08/11 15:46:38;;;;;;;4.13;1.50;;;;;;;;;;4945593;29;20051;-73
2022/08/11 15:49:13;;;;;;;3.72;1.30;;;;;;;;;;4954278;28;20087;-73
2022/08/11 15:51:51;;;;;;;3.78;1.88;;;;;;;;;;4947058;29;20062;-73
2022/08/11 15:54:24;;;;;;;7.18;1.50;;;;;;;;;;4953266;28;20047;-72
2022/08/11 15:56:57;;;;;;;5.03;1.58;;;;;;;;;;4951400;28;20517;-73
2022/08/11 16:05:01;;;;;;;5.30;1.50;;;;;;;;;;4950448;29;20047;-73
2022/08/11 16:07:33;;;;;;;4.20;1.55;;;;;;;;;;4949964;29;20054;-74
2022/08/11 16:10:09;;;;;;;3.10;1.30;;;;;;;;;;4951143;28;20043;-71
2022/08/11 16:18:19;;;;;;;4.53;1.50;;;;;;;;;;4950822;28;20492;-74
2022/08/11 16:20:48;;;;;;;4.00;1.50;;;;;;;;;;4951065;28;20139;-74
2022/08/11 16:23:16;;;;;;;7.43;1.65;;;;;;;;;;4943645;28;20106;-74
2022/08/11 16:25:43;;;;;;;5.00;1.70;;;;;;;;;;4930474;29;20214;-73
2022/08/11 16:28:12;;;;;;;3.75;1.52;;;;;;;;;;4935236;28;20550;-73
2022/08/11 16:30:40;;;;;;;5.15;1.60;;;;;;;;;;4950300;28;20047;-74
2022/08/11 16:33:08;;;;;;;3.47;1.23;;;;;;;;;;4949502;29;20396;-72
2022/08/11 16:38:34;;;;;;;4.50;1.50;;;;;;;;;;4951850;29;20152;-72
2022/08/11 16:41:13;;;;;;;3.13;1.48;;;;;;;;;;4949822;28;20416;-73
2022/08/11 16:49:19;;;;;;;5.90;1.77;;;;;;;;;;4970309;28;20054;-73
2022/08/11 16:51:46;;;;;;;3.10;1.48;;;;;;;;;;4970057;28;20385;-72
2022/08/11 16:54:13;;;;;;;2.28;1.35;;;;;;;;;;4969121;28;20046;-73
2022/08/11 16:56:45;;;;;;;4.25;1.45;;;;;;;;;;4969536;28;20436;-76
2022/08/11 16:59:18;;;;;;;2.20;1.50;;;;;;;;;;4942541;28;20127;-71
2022/08/11 17:01:52;;;;;;;4.90;1.50;;;;;;;;;;4932211;28;20154;-74
2022/08/11 17:13:48;;;;;;;6.53;1.70;;;;;;;;;;4934138;29;20106;-72
2022/08/11 17:16:20;;;;;;;4.10;1.40;;;;;;;;;;4933357;29;20052;-75
2022/08/11 17:19:06;;;;;;;6.90;1.83;;;;;;;;;;4930917;28;20119;-72
2022/08/11 17:24:32;;;;;;;7.20;2.22;;;;;;;;;;4967241;28;20057;-74
2022/08/11 17:27:00;;;;;;;9.18;1.63;;;;;;;;;;4966243;28;20204;-72
2022/08/11 17:29:26;;;;;;;5.80;1.85;;;;;;;;;;4967550;28;20046;-71
2022/08/11 17:37:26;;;;;;;5.63;1.80;;;;;;;;;;4965453;28;20070;-74
2022/08/11 17:39:54;;;;;;;5.35;1.70;;;;;;;;;;4966310;28;20062;-73
2022/08/11 17:50:40;;;;;;;5.07;1.67;;;;;;;;;;4967603;28;20126;-74
2022/08/11 18:01:24;;;;;;;6.40;3.10;;;;;;;;;;4947726;29;20066;-71
2022/08/11 18:03:52;;;;;;;4.40;1.80;;;;;;;;;;4928616;29;20099;-72
2022/08/11 18:06:21;;;;;;;4.85;2.00;;;;;;;;;;4928394;29;20052;-74
